Weather at Lamia Air Base [CLOSED]

Public forecast

Using degrees Celsius for public forecast. Weather courtesy of forecast.io.

Closest aviation weather report (METAR) to Lamia Air Base

Closest report is Nea Anchialos National Airport, 26.6 nm (49.3 km) NE. Retrieved 2021/06/15 17:50 UTC (33 minutes ago):

LGBL 151750Z 15004KT 9999 FEW035 21/11 Q1012 RMK FEW080 SCT180 BLU

Closest aviation forecast (TAF) to Lamia Air Base

Forecast is more than 12 hours old.

Closest forecast is Skiathos Island National Airport, 53.1 nm (98.3 km) ENE. Retrieved 2012/09/27 00:18 UTC (9 years ago):

TAF LGSK 272300Z 2800/2909 01010KT 9999 FEW020